Terminal Aerodrome Forecast
Issued by NWS

Home | Current Version | Previous Version | Text Only | Print | Product List | Glossary On
Versions: 1 2 3 4 5 6 7 8 9 10 11 12
000
FTUS42 KMLB 051133
TAFISM
TAF
KISM 051133Z 0512/0612 06008KT P6SM VCSH BKN020 OVC080
     FM051400 08012G18KT P6SM SCT035 BKN060
     FM051800 08017G24KT P6SM VCSH BKN040 BKN250
     FM060000 07011KT P6SM SCT040 SCT250=

USA.gov is the U.S. government's official web portal to all federal, state and local government web resources and services.